createdAt,value
2023-03-10T00:01:49.261Z,100.00
2023-03-10T00:05:01.654Z,100.00
2023-03-10T00:16:56.620Z,100.00
2023-03-10T00:19:28.871Z,100.00
2023-03-10T00:26:34.928Z,100.00
2023-03-10T00:29:14.276Z,100.00
2023-03-10T00:31:47.477Z,100.00
2023-03-10T00:38:45.046Z,100.00
2023-03-10T00:45:49.893Z,100.00
2023-03-10T00:52:40.520Z,100.00
2023-03-10T00:55:11.400Z,100.00
2023-03-10T00:57:43.607Z,100.00
2023-03-10T01:00:24.140Z,100.00
2023-03-10T01:07:39.311Z,100.00
2023-03-10T01:15:19.737Z,100.00
2023-03-10T01:17:51.963Z,100.00
2023-03-10T01:20:31.223Z,100.00
2023-03-10T01:23:03.730Z,100.00
2023-03-10T01:25:42.111Z,100.00
2023-03-10T01:28:14.609Z,100.00
2023-03-10T01:35:37.566Z,100.00
2023-03-10T01:38:11.997Z,100.00
2023-03-10T01:45:47.011Z,100.00
2023-03-10T01:48:21.556Z,100.00
2023-03-10T01:51:01.303Z,100.00
2023-03-10T01:53:34.370Z,100.00
2023-03-10T02:09:05.969Z,100.00
2023-03-10T02:11:55.181Z,100.00
2023-03-10T02:15:14.024Z,100.00
2023-03-10T02:17:46.416Z,100.00
2023-03-10T02:24:56.044Z,100.00
2023-03-10T02:27:42.608Z,100.00
2023-03-10T02:35:04.571Z,100.00
2023-03-10T02:38:10.816Z,100.00
2023-03-10T02:40:52.818Z,100.00
2023-03-10T02:47:56.102Z,100.00
2023-03-10T02:50:31.919Z,100.00
2023-03-10T02:53:49.490Z,100.00
2023-03-10T02:56:29.420Z,100.00
2023-03-10T02:59:03.325Z,100.00
2023-03-10T03:02:04.205Z,100.00
2023-03-10T03:04:36.812Z,100.00
2023-03-10T03:11:36.949Z,100.00
2023-03-10T03:14:10.450Z,100.00
2023-03-10T03:16:50.019Z,100.00
2023-03-10T03:23:57.286Z,100.00
2023-03-10T03:31:02.108Z,100.00
2023-03-10T03:38:03.050Z,100.00
2023-03-10T03:41:22.410Z,100.00
2023-03-10T03:43:54.835Z,100.00
2023-03-10T03:51:45.333Z,100.00
2023-03-10T03:54:24.361Z,100.00
2023-03-10T03:56:57.204Z,100.00
2023-03-10T03:59:36.420Z,100.00
2023-03-10T04:02:08.850Z,100.00
2023-03-10T04:05:12.252Z,100.00
2023-03-10T04:08:22.013Z,100.00
2023-03-10T04:10:56.338Z,100.00
2023-03-10T04:13:58.152Z,100.00
2023-03-10T04:17:28.687Z,100.00
2023-03-10T04:25:09.996Z,100.00
2023-03-10T04:27:42.645Z,100.00
2023-03-10T04:35:29.971Z,100.00
2023-03-10T04:38:04.063Z,100.00
2023-03-10T04:41:30.414Z,100.00
2023-03-10T04:44:03.171Z,100.00
2023-03-10T04:46:37.163Z,100.00
2023-03-10T04:49:17.773Z,100.00
2023-03-10T05:00:56.416Z,100.00
2023-03-10T05:03:33.321Z,100.00
2023-03-10T05:06:06.050Z,100.00
2023-03-10T05:08:45.493Z,100.00
2023-03-10T05:11:35.499Z,100.00
2023-03-10T05:14:59.337Z,100.00
2023-03-10T05:17:32.041Z,100.00
2023-03-10T05:20:13.481Z,100.00
2023-03-10T05:23:27.066Z,100.00
2023-03-10T05:38:53.937Z,100.00
2023-03-10T05:41:26.336Z,100.00
2023-03-10T05:44:00.790Z,100.00
2023-03-10T05:46:51.592Z,100.00
2023-03-10T05:58:27.677Z,100.00
2023-03-10T06:01:00.308Z,100.00
2023-03-10T06:03:39.928Z,100.00
2023-03-10T06:06:12.782Z,100.00
2023-03-10T06:13:20.184Z,100.00
2023-03-10T06:16:01.336Z,100.00
2023-03-10T06:18:34.174Z,100.00
2023-03-10T06:21:15.481Z,100.00
2023-03-10T06:24:08.730Z,100.00
2023-03-10T06:26:47.407Z,100.00
2023-03-10T06:29:19.649Z,100.00
2023-03-10T06:44:19.413Z,100.00
2023-03-10T06:46:51.659Z,99.87
2023-03-10T06:49:34.053Z,99.87
2023-03-10T06:56:30.860Z,100.00
2023-03-10T07:03:35.529Z,99.89
2023-03-10T07:06:14.411Z,100.00
2023-03-10T07:08:48.849Z,99.92
2023-03-10T07:12:13.317Z,99.85
2023-03-10T07:14:45.520Z,99.91
2023-03-10T07:17:52.774Z,99.21
2023-03-10T07:20:25.801Z,99.43
2023-03-10T07:22:58.024Z,99.04
2023-03-10T07:29:56.720Z,97.54
2023-03-10T07:33:46.119Z,94.61
2023-03-10T07:40:18.105Z,94.74
2023-03-10T07:42:50.314Z,95.30
2023-03-10T07:45:22.767Z,92.55
2023-03-10T07:48:38.427Z,92.95
2023-03-10T07:51:12.550Z,93.46
2023-03-10T07:57:38.579Z,90.46
2023-03-10T08:00:13.178Z,84.65
2023-03-10T08:03:38.200Z,84.37
2023-03-10T08:10:22.731Z,79.95
2023-03-10T08:12:56.658Z,75.91
2023-03-10T08:20:01.683Z,80.33
2023-03-10T08:22:40.442Z,82.83
2023-03-10T08:25:13.701Z,80.18
2023-03-10T08:27:54.480Z,78.08
2023-03-10T08:30:26.827Z,74.69
2023-03-10T08:32:59.211Z,72.26
2023-03-10T08:39:33.330Z,69.47
2023-03-10T08:45:38.381Z,65.31
2023-03-10T08:48:10.477Z,64.29
2023-03-10T08:50:42.554Z,64.30
2023-03-10T09:00:24.702Z,61.82
2023-03-10T09:07:43.567Z,62.35
2023-03-10T09:10:22.677Z,61.83
2023-03-10T09:13:07.403Z,64.84
2023-03-10T09:16:40.572Z,64.49
2023-03-10T09:19:52.576Z,61.61
2023-03-10T09:26:57.630Z,65.05
2023-03-10T09:29:42.813Z,65.46
2023-03-10T09:36:15.922Z,64.60
2023-03-10T09:38:48.242Z,61.21
2023-03-10T09:41:53.368Z,55.82
2023-03-10T09:44:39.058Z,54.09
2023-03-10T09:48:02.565Z,51.18
2023-03-10T10:13:50.376Z,47.03
2023-03-10T10:16:37.772Z,47.62
2023-03-10T10:23:26.290Z,49.66
2023-03-10T10:26:53.244Z,49.16
2023-03-10T10:34:18.521Z,46.03
2023-03-10T10:37:25.733Z,45.96
2023-03-10T10:40:06.149Z,44.26
2023-03-10T10:50:37.379Z,46.59
2023-03-10T11:01:24.089Z,47.43
2023-03-10T11:04:26.814Z,48.47
2023-03-10T11:07:50.161Z,48.92
2023-03-10T11:18:14.345Z,49.60
2023-03-10T11:30:01.618Z,50.37
2023-03-10T11:32:49.940Z,51.20
2023-03-10T11:46:46.678Z,53.10
2023-03-10T11:56:03.658Z,51.73
2023-03-10T11:59:33.752Z,50.29
2023-03-10T12:10:53.639Z,49.17
2023-03-10T12:13:28.532Z,47.76
2023-03-10T12:16:47.050Z,48.25
2023-03-10T12:23:44.468Z,48.81
2023-03-10T12:31:30.568Z,48.16
2023-03-10T12:38:46.889Z,48.62
2023-03-10T12:44:55.402Z,49.95
2023-03-10T12:56:39.748Z,49.87
2023-03-10T13:11:22.958Z,50.26
2023-03-10T13:14:55.745Z,50.44
2023-03-10T13:21:59.322Z,50.73
2023-03-10T13:24:42.751Z,48.38
2023-03-10T13:32:06.427Z,48.23
2023-03-10T13:34:38.821Z,47.94
2023-03-10T13:40:47.282Z,46.29
2023-03-10T13:43:40.563Z,46.25
2023-03-10T13:47:01.751Z,44.39
2023-03-10T13:50:27.923Z,45.83
2023-03-10T13:53:02.176Z,43.95
2023-03-10T13:55:43.453Z,44.86
2023-03-10T13:58:16.506Z,45.20
2023-03-10T14:00:52.573Z,44.94
2023-03-10T14:05:02.152Z,45.55
2023-03-10T14:07:36.107Z,46.22
2023-03-10T14:10:31.566Z,46.05
2023-03-10T14:20:41.263Z,47.56
2023-03-10T14:23:48.104Z,48.06
2023-03-10T14:34:21.282Z,49.54
2023-03-10T14:37:00.440Z,49.84
2023-03-10T14:39:34.548Z,50.27
2023-03-10T14:47:11.694Z,50.86
2023-03-10T14:49:44.218Z,51.04
2023-03-10T14:57:09.151Z,51.69
2023-03-10T15:04:18.227Z,52.43
2023-03-10T15:11:35.689Z,53.06
2023-03-10T15:14:55.384Z,53.43
2023-03-10T15:17:48.034Z,53.99
2023-03-10T15:20:27.644Z,54.01
2023-03-10T15:22:59.976Z,54.11
2023-03-10T15:25:38.440Z,54.29
2023-03-10T15:31:26.378Z,54.60
2023-03-10T15:38:31.439Z,55.39
2023-03-10T15:41:10.361Z,55.50
2023-03-10T15:43:42.600Z,55.81
2023-03-10T15:46:21.573Z,56.10
2023-03-10T15:53:35.636Z,56.75
2023-03-10T15:56:15.520Z,56.72
2023-03-10T15:58:47.769Z,57.11
2023-03-10T16:01:26.245Z,57.05
2023-03-10T16:04:01.648Z,56.99
2023-03-10T16:07:26.300Z,57.21
2023-03-10T16:10:22.722Z,57.53
2023-03-10T16:17:29.812Z,57.86
2023-03-10T16:20:38.963Z,58.07
2023-03-10T16:23:18.393Z,58.17
2023-03-10T16:40:16.200Z,59.67
2023-03-10T16:42:48.349Z,59.77
2023-03-10T16:45:20.769Z,60.11
2023-03-10T16:47:52.896Z,60.16
2023-03-10T16:50:25.100Z,60.39
2023-03-10T16:52:57.318Z,60.61
2023-03-10T16:55:29.720Z,60.72
2023-03-10T16:58:01.934Z,60.87
2023-03-10T17:00:34.769Z,61.08
2023-03-10T17:03:07.237Z,61.41
2023-03-10T17:05:39.785Z,61.77
2023-03-10T17:08:12.544Z,62.09
2023-03-10T17:10:44.982Z,62.43
2023-03-10T17:13:17.500Z,62.85
2023-03-10T17:15:50.161Z,62.85
2023-03-10T17:18:22.542Z,63.15
2023-03-10T17:20:54.741Z,63.41
2023-03-10T17:26:52.426Z,64.31
2023-03-10T17:36:38.044Z,65.36
2023-03-10T17:47:20.000Z,66.87
2023-03-10T17:49:52.534Z,67.14
2023-03-10T17:52:24.888Z,67.26
2023-03-10T17:55:03.436Z,67.64
2023-03-10T18:02:08.623Z,68.25
2023-03-10T18:04:48.704Z,68.41
2023-03-10T18:07:21.041Z,68.96
2023-03-10T18:09:59.714Z,68.99
2023-03-10T18:12:31.872Z,69.06
2023-03-10T18:15:16.388Z,69.72
2023-03-10T18:17:49.363Z,69.73
2023-03-10T18:20:25.030Z,70.16
2023-03-10T18:22:57.558Z,70.05
2023-03-10T18:25:29.783Z,70.11
2023-03-10T18:28:02.537Z,70.34
2023-03-10T18:30:34.818Z,70.25
2023-03-10T18:33:07.965Z,70.20
2023-03-10T18:35:42.222Z,70.33
2023-03-10T18:38:16.157Z,70.53
2023-03-10T18:40:48.590Z,70.77
2023-03-10T18:43:20.830Z,71.62
2023-03-10T18:45:53.323Z,71.10
2023-03-10T18:48:33.662Z,71.12
2023-03-10T18:51:06.877Z,71.26
2023-03-10T18:53:40.099Z,71.58
2023-03-10T18:56:12.774Z,71.55
2023-03-10T18:58:48.113Z,71.78
2023-03-10T19:01:20.516Z,72.18
2023-03-10T19:07:09.035Z,73.65
2023-03-10T19:09:42.392Z,73.41
2023-03-10T19:12:14.673Z,72.88
2023-03-10T19:14:47.636Z,73.19
2023-03-10T19:17:20.238Z,74.87
2023-03-10T19:19:53.532Z,74.09
2023-03-10T19:22:27.176Z,74.87
2023-03-10T19:24:59.574Z,74.33
2023-03-10T19:27:33.903Z,74.33
2023-03-10T19:30:07.614Z,74.68
2023-03-10T19:32:40.326Z,74.67
2023-03-10T19:38:13.383Z,75.63
2023-03-10T19:40:55.961Z,74.92
2023-03-10T19:43:28.377Z,74.66
2023-03-10T19:46:03.808Z,75.03
2023-03-10T19:48:54.053Z,74.86
2023-03-10T19:51:37.613Z,75.15
2023-03-10T19:54:09.998Z,74.95
2023-03-10T19:56:42.375Z,75.15
2023-03-10T19:59:14.960Z,75.16
2023-03-10T20:01:49.141Z,75.22
2023-03-10T20:04:22.648Z,74.61
2023-03-10T20:06:55.064Z,74.88
2023-03-10T20:09:27.425Z,74.67
2023-03-10T20:11:59.781Z,75.26
2023-03-10T20:14:32.288Z,75.07
2023-03-10T20:17:05.331Z,74.75
2023-03-10T20:19:38.236Z,75.19
2023-03-10T20:22:18.834Z,75.03
2023-03-10T20:24:49.404Z,75.48
2023-03-10T20:30:55.499Z,75.82
2023-03-10T20:38:52.949Z,75.84
2023-03-10T20:41:25.419Z,75.72
2023-03-10T20:43:57.760Z,75.92
2023-03-10T20:51:02.176Z,76.26
2023-03-10T20:58:06.497Z,76.24
2023-03-10T21:00:48.900Z,76.28
2023-03-10T21:04:06.725Z,76.14
2023-03-10T21:37:25.826Z,77.44
2023-03-10T21:44:39.711Z,78.02
2023-03-10T21:47:18.557Z,77.95
2023-03-10T21:49:50.656Z,77.86
2023-03-10T21:57:13.778Z,78.49
2023-03-10T21:59:45.894Z,78.56
2023-03-10T22:02:45.304Z,78.52
2023-03-10T22:05:44.076Z,78.55
2023-03-10T22:08:25.471Z,78.56
2023-03-10T22:11:42.943Z,78.50
2023-03-10T22:14:24.037Z,78.34
2023-03-10T22:26:22.535Z,78.75
2023-03-10T22:29:27.096Z,78.47
2023-03-10T22:32:30.480Z,78.50
2023-03-10T22:35:02.708Z,78.58
2023-03-10T22:37:36.219Z,78.62
2023-03-10T22:40:17.891Z,78.83
2023-03-10T22:43:35.642Z,79.27
2023-03-10T22:54:53.044Z,80.20
2023-03-10T22:57:31.607Z,80.65
2023-03-10T23:00:04.408Z,80.25
2023-03-10T23:02:44.239Z,80.15
2023-03-10T23:05:17.118Z,80.45
2023-03-10T23:07:56.231Z,81.03
2023-03-10T23:10:31.148Z,81.17
2023-03-10T23:14:38.218Z,82.48
2023-03-10T23:17:16.678Z,82.89
2023-03-10T23:19:51.298Z,82.50
2023-03-10T23:23:10.478Z,82.60
2023-03-10T23:25:44.438Z,83.82
2023-03-10T23:28:23.539Z,83.87
2023-03-10T23:30:55.830Z,84.40
2023-03-10T23:33:34.749Z,84.07
2023-03-10T23:36:08.431Z,84.56
2023-03-10T23:38:41.746Z,85.03
2023-03-10T23:41:20.716Z,84.65
2023-03-10T23:43:53.572Z,84.57
2023-03-10T23:55:26.264Z,84.60
